Carlos E Rui — CULA8 — position and weather

sailwx.info

Track history (hours):
 
Tides and Currents Weather Stations Pressure Air Temp Water Temp Dewpoint Dewpoint Depression Visibility Wind Speed Wind Dir Waves Ship Positions

Carlos E Rui

Last reported at 2018-Apr-24 03:46 UTC. Time now 2018-Apr-24 23:03 UTC.
Position N 38°26' W 009°07'.

Length 15 m.

Type: Fishing. MMSI: 263269000.

Date/timePositionNaut miles runAvg speedWind from/ knotsBaromVisibWave heightAir tempDewpointWater temp
2018-Apr-24 03:46N 38°26' W 009°07'5 7.6
2018-Apr-24 03:08N 38°24' W 009°13'1 7.5
2018-Apr-24 03:00N 38°23' W 009°14'4 7.5
2018-Apr-24 02:30N 38°22' W 009°18'3 5.2
2018-Apr-24 02:00N 38°21' W 009°21'2 4.2
2018-Apr-24 01:30N 38°20' W 009°23'3 5.3
2018-Apr-24 01:00N 38°21' W 009°26'2 4.4
2018-Apr-24 00:30N 38°23' W 009°24'1 2.4
2018-Apr-23 23:59N 38°22' W 009°24'0 0.5
2018-Apr-23 23:30N 38°22' W 009°24'0 0.7
2018-Apr-23 23:00N 38°21' W 009°25'0 0.7
2018-Apr-23 22:29N 38°21' W 009°25'0 0.7
2018-Apr-23 22:00N 38°21' W 009°25'0 0.8
2018-Apr-23 21:30N 38°20' W 009°25'1 1.0
2018-Apr-23 20:59N 38°20' W 009°24'0 1.0
2018-Apr-23 20:30N 38°20' W 009°24'0 0.5
2018-Apr-23 19:54N 38°20' W 009°24'0 1.0
2018-Apr-23 19:28N 38°20' W 009°23'0 0.9
2018-Apr-23 19:00N 38°20' W 009°23'0 0.9
2018-Apr-23 18:30N 38°20' W 009°22'0 0.8
2018-Apr-23 18:00N 38°20' W 009°22'0 0.9
2018-Apr-23 17:30N 38°21' W 009°21'0 0.9
2018-Apr-23 17:00N 38°21' W 009°21'0 0.7
2018-Apr-23 16:30N 38°21' W 009°21'0 0.1
2018-Apr-23 15:59N 38°21' W 009°21'0 0.3
2018-Apr-23 15:30N 38°22' W 009°21'3 5.6
2018-Apr-23 14:58N 38°23' W 009°18'4 8.6
2018-Apr-23 14:28N 38°24' W 009°12'4 8.8
2018-Apr-23 14:00N 38°26' W 009°08'  
2018-Apr-21 04:28N 38°26' W 009°07'5 7.1
2018-Apr-21 03:44N 38°24' W 009°13'2 8.6
2018-Apr-21 03:30N 38°24' W 009°15'4 8.6
2018-Apr-21 02:59N 38°22' W 009°20'3 5.6
2018-Apr-21 02:30N 38°20' W 009°22'3 5.2
2018-Apr-21 01:51N 38°21' W 009°26'2 4.8
2018-Apr-21 01:24N 38°22' W 009°24'1 2.4
2018-Apr-21 01:00N 38°23' W 009°24'0 0.5
2018-Apr-21 00:30N 38°23' W 009°25'0 0.4
2018-Apr-20 23:59N 38°23' W 009°25'0 0.9
2018-Apr-20 23:30N 38°22' W 009°25'0 0.7
2018-Apr-20 22:57N 38°22' W 009°25'0 0.6
2018-Apr-20 22:30N 38°22' W 009°26'0 0.8
2018-Apr-20 21:57N 38°21' W 009°25'1 1.1
2018-Apr-20 21:30N 38°21' W 009°25'1 1.1
2018-Apr-20 21:00N 38°21' W 009°25'0 0.8
2018-Apr-20 20:25N 38°20' W 009°24'0 0.7
2018-Apr-20 20:00N 38°20' W 009°24'0 0.9
2018-Apr-20 19:27N 38°20' W 009°23'0 0.9
2018-Apr-20 19:00N 38°20' W 009°23'0 0.8
2018-Apr-20 18:29N 38°20' W 009°22'0 0.8
2018-Apr-20 18:00N 38°21' W 009°22'1 0.8
2018-Apr-20 17:18N 38°21' W 009°22'0 0.8
2018-Apr-20 16:58N 38°21' W 009°21'0 0.7
2018-Apr-20 16:30N 38°22' W 009°21'0 0.4
2018-Apr-20 15:57N 38°22' W 009°21'1 1.6
2018-Apr-20 15:23N 38°22' W 009°20'3 8.5
2018-Apr-20 15:00N 38°23' W 009°16'5 8.4
2018-Apr-20 14:28N 38°24' W 009°11'4 0.1
2018-Apr-19 08:54N 38°26' W 009°07'0 0.6
2018-Apr-19 08:30N 38°26' W 009°07'4 8.6
2018-Apr-19 08:00N 38°24' W 009°12'4 8.4
2018-Apr-19 07:30N 38°23' W 009°17'4 7.2
2018-Apr-19 07:00N 38°22' W 009°21'3 5.6
2018-Apr-19 06:30N 38°19' W 009°23'3 5.2
2018-Apr-19 06:00N 38°21' W 009°26'2 4.5
2018-Apr-19 05:29N 38°23' W 009°24'0 0.2
2018-Apr-19 04:59N 38°23' W 009°24'2 3.7
2018-Apr-19 04:30N 38°22' W 009°25'0 0.5
2018-Apr-19 03:59N 38°22' W 009°25'0 0.6
2018-Apr-19 03:30N 38°22' W 009°25'0 0.9
2018-Apr-19 03:00N 38°22' W 009°24'1 1.1
2018-Apr-19 02:30N 38°22' W 009°23'1 1.1
2018-Apr-19 02:00N 38°22' W 009°23'2 3.5
2018-Apr-19 01:30N 38°21' W 009°25'1 1.1
2018-Apr-19 00:57N 38°20' W 009°24'1 1.1
2018-Apr-19 00:28N 38°20' W 009°23'0 0.8
2018-Apr-19 00:00N 38°20' W 009°23'0 0.8
2018-Apr-18 23:29N 38°20' W 009°23'1 0.9
2018-Apr-18 22:49N 38°20' W 009°22'0 0.9
2018-Apr-18 22:27N 38°20' W 009°22'0 0.9
2018-Apr-18 21:59N 38°20' W 009°21'1 1.0
2018-Apr-18 21:28N 38°21' W 009°21'0 0.9
2018-Apr-18 21:00N 38°21' W 009°21'0 0.9
2018-Apr-18 20:30N 38°22' W 009°21'0 0.5
2018-Apr-18 20:00N 38°22' W 009°21'0 0.2
2018-Apr-18 19:30N 38°22' W 009°21'2 4.7
2018-Apr-18 19:00N 38°23' W 009°18'4 8.6
2018-Apr-18 18:30N 38°24' W 009°13'4 8.4
2018-Apr-18 18:00N 38°25' W 009°08'1 2.2
2018-Apr-18 17:30N 38°26' W 009°07'0 0.0
2018-Apr-17 10:24N 38°26' W 009°07'4 8.1
2018-Apr-17 09:54N 38°24' W 009°12'3 8.1
2018-Apr-17 09:28N 38°24' W 009°16'4 8.3
2018-Apr-17 08:59N 38°22' W 009°21'3 6.3
2018-Apr-17 08:30N 38°19' W 009°22'3 5.9
2018-Apr-17 07:57N 38°21' W 009°25'2 3.4
2018-Apr-17 07:18N 38°22' W 009°23'0 0.2
2018-Apr-17 06:57N 38°22' W 009°23'4 8.5
2018-Apr-17 06:30N 38°23' W 009°18'6 8.8
2018-Apr-17 05:51N 38°24' W 009°11'3 8.6
2018-Apr-17 05:30N 38°26' W 009°08'  
2018-Apr-14 09:07N 38°26' W 009°07'6 7.2
2018-Apr-14 08:21N 38°24' W 009°13'3 8.2
2018-Apr-14 07:58N 38°23' W 009°17'4 8.0
2018-Apr-14 07:26N 38°22' W 009°22'2 3.6
2018-Apr-14 06:55N 38°22' W 009°25'0 0.2
2018-Apr-14 06:27N 38°22' W 009°25'0 0.3
2018-Apr-14 05:58N 38°22' W 009°25'0 0.7
2018-Apr-14 05:29N 38°22' W 009°25'1 0.6
2018-Apr-14 04:08N 38°21' W 009°25'0 0.9
2018-Apr-14 03:56N 38°21' W 009°25'  
Track history (hours):
 
Tides and Currents Weather Stations Pressure Air Temp Water Temp Dewpoint Dewpoint Depression Visibility Wind Speed Wind Dir Waves Ship Positions

Carlos E Rui

Last reported at 2018-Apr-24 03:46 UTC. Time now 2018-Apr-24 23:03 UTC.
Position N 38°26' W 009°07'.

Length 15 m.

Type: Fishing. MMSI: 263269000.

Date/timePositionNaut miles runAvg speedWind from/ knotsBaromVisibWave heightAir tempDewpointWater temp
2018-Apr-24 03:46N 38°26' W 009°07'5 7.6
2018-Apr-24 03:08N 38°24' W 009°13'1 7.5
2018-Apr-24 03:00N 38°23' W 009°14'4 7.5
2018-Apr-24 02:30N 38°22' W 009°18'3 5.2
2018-Apr-24 02:00N 38°21' W 009°21'2 4.2
2018-Apr-24 01:30N 38°20' W 009°23'3 5.3
2018-Apr-24 01:00N 38°21' W 009°26'2 4.4
2018-Apr-24 00:30N 38°23' W 009°24'1 2.4
2018-Apr-23 23:59N 38°22' W 009°24'0 0.5
2018-Apr-23 23:30N 38°22' W 009°24'0 0.7
2018-Apr-23 23:00N 38°21' W 009°25'0 0.7
2018-Apr-23 22:29N 38°21' W 009°25'0 0.7
2018-Apr-23 22:00N 38°21' W 009°25'0 0.8
2018-Apr-23 21:30N 38°20' W 009°25'1 1.0
2018-Apr-23 20:59N 38°20' W 009°24'0 1.0
2018-Apr-23 20:30N 38°20' W 009°24'0 0.5
2018-Apr-23 19:54N 38°20' W 009°24'0 1.0
2018-Apr-23 19:28N 38°20' W 009°23'0 0.9
2018-Apr-23 19:00N 38°20' W 009°23'0 0.9
2018-Apr-23 18:30N 38°20' W 009°22'0 0.8
2018-Apr-23 18:00N 38°20' W 009°22'0 0.9
2018-Apr-23 17:30N 38°21' W 009°21'0 0.9
2018-Apr-23 17:00N 38°21' W 009°21'0 0.7
2018-Apr-23 16:30N 38°21' W 009°21'0 0.1
2018-Apr-23 15:59N 38°21' W 009°21'0 0.3
2018-Apr-23 15:30N 38°22' W 009°21'3 5.6
2018-Apr-23 14:58N 38°23' W 009°18'4 8.6
2018-Apr-23 14:28N 38°24' W 009°12'4 8.8
2018-Apr-23 14:00N 38°26' W 009°08'  
2018-Apr-21 04:28N 38°26' W 009°07'5 7.1
2018-Apr-21 03:44N 38°24' W 009°13'2 8.6
2018-Apr-21 03:30N 38°24' W 009°15'4 8.6
2018-Apr-21 02:59N 38°22' W 009°20'3 5.6
2018-Apr-21 02:30N 38°20' W 009°22'3 5.2
2018-Apr-21 01:51N 38°21' W 009°26'2 4.8
2018-Apr-21 01:24N 38°22' W 009°24'1 2.4
2018-Apr-21 01:00N 38°23' W 009°24'0 0.5
2018-Apr-21 00:30N 38°23' W 009°25'0 0.4
2018-Apr-20 23:59N 38°23' W 009°25'0 0.9
2018-Apr-20 23:30N 38°22' W 009°25'0 0.7
2018-Apr-20 22:57N 38°22' W 009°25'0 0.6
2018-Apr-20 22:30N 38°22' W 009°26'0 0.8
2018-Apr-20 21:57N 38°21' W 009°25'1 1.1
2018-Apr-20 21:30N 38°21' W 009°25'1 1.1
2018-Apr-20 21:00N 38°21' W 009°25'0 0.8
2018-Apr-20 20:25N 38°20' W 009°24'0 0.7
2018-Apr-20 20:00N 38°20' W 009°24'0 0.9
2018-Apr-20 19:27N 38°20' W 009°23'0 0.9
2018-Apr-20 19:00N 38°20' W 009°23'0 0.8
2018-Apr-20 18:29N 38°20' W 009°22'0 0.8
2018-Apr-20 18:00N 38°21' W 009°22'1 0.8
2018-Apr-20 17:18N 38°21' W 009°22'0 0.8
2018-Apr-20 16:58N 38°21' W 009°21'0 0.7
2018-Apr-20 16:30N 38°22' W 009°21'0 0.4
2018-Apr-20 15:57N 38°22' W 009°21'1 1.6
2018-Apr-20 15:23N 38°22' W 009°20'3 8.5
2018-Apr-20 15:00N 38°23' W 009°16'5 8.4
2018-Apr-20 14:28N 38°24' W 009°11'4 0.1
2018-Apr-19 08:54N 38°26' W 009°07'0 0.6
2018-Apr-19 08:30N 38°26' W 009°07'4 8.6
2018-Apr-19 08:00N 38°24' W 009°12'4 8.4
2018-Apr-19 07:30N 38°23' W 009°17'4 7.2
2018-Apr-19 07:00N 38°22' W 009°21'3 5.6
2018-Apr-19 06:30N 38°19' W 009°23'3 5.2
2018-Apr-19 06:00N 38°21' W 009°26'2 4.5
2018-Apr-19 05:29N 38°23' W 009°24'0 0.2
2018-Apr-19 04:59N 38°23' W 009°24'2 3.7
2018-Apr-19 04:30N 38°22' W 009°25'0 0.5
2018-Apr-19 03:59N 38°22' W 009°25'0 0.6
2018-Apr-19 03:30N 38°22' W 009°25'0 0.9
2018-Apr-19 03:00N 38°22' W 009°24'1 1.1
2018-Apr-19 02:30N 38°22' W 009°23'1 1.1
2018-Apr-19 02:00N 38°22' W 009°23'2 3.5
2018-Apr-19 01:30N 38°21' W 009°25'1 1.1
2018-Apr-19 00:57N 38°20' W 009°24'1 1.1
2018-Apr-19 00:28N 38°20' W 009°23'0 0.8
2018-Apr-19 00:00N 38°20' W 009°23'0 0.8
2018-Apr-18 23:29N 38°20' W 009°23'1 0.9
2018-Apr-18 22:49N 38°20' W 009°22'0 0.9
2018-Apr-18 22:27N 38°20' W 009°22'0 0.9
2018-Apr-18 21:59N 38°20' W 009°21'1 1.0
2018-Apr-18 21:28N 38°21' W 009°21'0 0.9
2018-Apr-18 21:00N 38°21' W 009°21'0 0.9
2018-Apr-18 20:30N 38°22' W 009°21'0 0.5
2018-Apr-18 20:00N 38°22' W 009°21'0 0.2
2018-Apr-18 19:30N 38°22' W 009°21'2 4.7
2018-Apr-18 19:00N 38°23' W 009°18'4 8.6
2018-Apr-18 18:30N 38°24' W 009°13'4 8.4
2018-Apr-18 18:00N 38°25' W 009°08'1 2.2
2018-Apr-18 17:30N 38°26' W 009°07'0 0.0
2018-Apr-17 10:24N 38°26' W 009°07'4 8.1
2018-Apr-17 09:54N 38°24' W 009°12'3 8.1
2018-Apr-17 09:28N 38°24' W 009°16'4 8.3
2018-Apr-17 08:59N 38°22' W 009°21'3 6.3
2018-Apr-17 08:30N 38°19' W 009°22'3 5.9
2018-Apr-17 07:57N 38°21' W 009°25'2 3.4
2018-Apr-17 07:18N 38°22' W 009°23'0 0.2
2018-Apr-17 06:57N 38°22' W 009°23'4 8.5
2018-Apr-17 06:30N 38°23' W 009°18'6 8.8
2018-Apr-17 05:51N 38°24' W 009°11'3 8.6
2018-Apr-17 05:30N 38°26' W 009°08'  
2018-Apr-14 09:07N 38°26' W 009°07'6 7.2
2018-Apr-14 08:21N 38°24' W 009°13'3 8.2
2018-Apr-14 07:58N 38°23' W 009°17'4 8.0
2018-Apr-14 07:26N 38°22' W 009°22'2 3.6
2018-Apr-14 06:55N 38°22' W 009°25'0 0.2
2018-Apr-14 06:27N 38°22' W 009°25'0 0.3
2018-Apr-14 05:58N 38°22' W 009°25'0 0.7
2018-Apr-14 05:29N 38°22' W 009°25'1 0.6
2018-Apr-14 04:08N 38°21' W 009°25'0 0.9
2018-Apr-14 03:56N 38°21' W 009°25'  

Dump ship's entire track history